sensor_id;sensor_type;location;lat;lon;timestamp;pressure;altitude;pressure_sealevel;temperature;humidity
15229;BME280;7717;47.792;12.076;2022-10-17T00:01:39;96787.53;;;10.37;100.00
15229;BME280;7717;47.792;12.076;2022-10-17T00:04:04;96787.59;;;10.44;100.00
15229;BME280;7717;47.792;12.076;2022-10-17T00:06:30;96793.44;;;10.31;100.00
15229;BME280;7717;47.792;12.076;2022-10-17T00:08:55;96785.84;;;10.40;100.00
15229;BME280;7717;47.792;12.076;2022-10-17T00:11:22;96793.50;;;10.39;100.00
15229;BME280;7717;47.792;12.076;2022-10-17T00:13:50;96791.75;;;10.32;100.00
15229;BME280;7717;47.792;12.076;2022-10-17T00:16:23;96802.09;;;10.42;100.00
15229;BME280;7717;47.792;12.076;2022-10-17T00:18:49;96799.75;;;10.95;100.00
15229;BME280;7717;47.792;12.076;2022-10-17T00:21:16;96784.38;;;10.93;100.00
15229;BME280;7717;47.792;12.076;2022-10-17T00:23:42;96792.91;;;10.97;100.00
15229;BME280;7717;47.792;12.076;2022-10-17T00:26:08;96792.09;;;10.96;100.00
15229;BME280;7717;47.792;12.076;2022-10-17T00:28:34;96793.75;;;10.82;100.00
15229;BME280;7717;47.792;12.076;2022-10-17T00:31:02;96803.84;;;10.57;100.00
15229;BME280;7717;47.792;12.076;2022-10-17T00:33:28;96803.78;;;10.47;100.00
15229;BME280;7717;47.792;12.076;2022-10-17T00:36:08;96811.31;;;10.26;100.00
15229;BME280;7717;47.792;12.076;2022-10-17T00:38:34;96804.50;;;10.27;100.00
15229;BME280;7717;47.792;12.076;2022-10-17T00:41:01;96811.28;;;10.22;100.00
15229;BME280;7717;47.792;12.076;2022-10-17T00:43:26;96811.22;;;10.11;100.00
15229;BME280;7717;47.792;12.076;2022-10-17T00:45:54;96812.00;;;10.02;100.00
15229;BME280;7717;47.792;12.076;2022-10-17T00:48:20;96806.06;;;10.03;100.00
15229;BME280;7717;47.792;12.076;2022-10-17T00:50:47;96811.09;;;9.94;100.00
15229;BME280;7717;47.792;12.076;2022-10-17T00:53:14;96813.66;;;9.94;100.00
15229;BME280;7717;47.792;12.076;2022-10-17T00:55:50;96815.22;;;9.81;100.00
15229;BME280;7717;47.792;12.076;2022-10-17T00:58:18;96818.69;;;9.85;100.00
15229;BME280;7717;47.792;12.076;2022-10-17T01:00:51;96825.44;;;9.78;100.00
15229;BME280;7717;47.792;12.076;2022-10-17T01:03:17;96820.28;;;9.77;100.00
15229;BME280;7717;47.792;12.076;2022-10-17T01:05:42;96828.72;;;9.65;100.00
15229;BME280;7717;47.792;12.076;2022-10-17T01:08:08;96834.59;;;9.54;100.00
15229;BME280;7717;47.792;12.076;2022-10-17T01:13:33;96831.78;;;9.28;100.00
15229;BME280;7717;47.792;12.076;2022-10-17T01:16:14;96838.59;;;9.29;100.00
15229;BME280;7717;47.792;12.076;2022-10-17T01:24:49;96824.81;;;9.15;100.00
15229;BME280;7717;47.792;12.076;2022-10-17T01:30:18;96835.75;;;9.05;100.00
15229;BME280;7717;47.792;12.076;2022-10-17T01:32:56;96834.22;;;9.19;100.00
15229;BME280;7717;47.792;12.076;2022-10-17T01:35:36;96840.94;;;9.12;100.00
15229;BME280;7717;47.792;12.076;2022-10-17T01:38:11;96838.28;;;9.05;100.00
15229;BME280;7717;47.792;12.076;2022-10-17T01:40:44;96836.50;;;8.94;100.00
15229;BME280;7717;47.792;12.076;2022-10-17T01:43:36;96841.63;;;8.96;100.00
15229;BME280;7717;47.792;12.076;2022-10-17T01:48:37;96827.97;;;8.95;100.00
15229;BME280;7717;47.792;12.076;2022-10-17T01:51:18;96833.06;;;8.95;100.00
15229;BME280;7717;47.792;12.076;2022-10-17T01:54:12;96833.81;;;8.85;100.00
15229;BME280;7717;47.792;12.076;2022-10-17T01:56:36;96832.91;;;8.80;100.00
15229;BME280;7717;47.792;12.076;2022-10-17T01:59:19;96833.84;;;8.88;100.00
15229;BME280;7717;47.792;12.076;2022-10-17T02:01:49;96834.88;;;9.03;100.00
15229;BME280;7717;47.792;12.076;2022-10-17T02:04:15;96835.72;;;9.01;100.00
15229;BME280;7717;47.792;12.076;2022-10-17T02:06:41;96815.09;;;8.85;100.00
15229;BME280;7717;47.792;12.076;2022-10-17T02:09:21;96828.75;;;8.88;100.00
15229;BME280;7717;47.792;12.076;2022-10-17T02:14:31;96836.50;;;8.94;100.00
15229;BME280;7717;47.792;12.076;2022-10-17T02:17:38;96833.03;;;8.92;100.00
15229;BME280;7717;47.792;12.076;2022-10-17T02:20:36;96829.59;;;8.87;100.00
15229;BME280;7717;47.792;12.076;2022-10-17T02:23:12;96832.09;;;8.84;100.00
15229;BME280;7717;47.792;12.076;2022-10-17T02:25:46;96841.56;;;8.91;100.00
15229;BME280;7717;47.792;12.076;2022-10-17T02:28:23;96833.88;;;8.90;100.00
15229;BME280;7717;47.792;12.076;2022-10-17T02:33:51;96832.16;;;8.89;100.00
15229;BME280;7717;47.792;12.076;2022-10-17T02:36:22;96835.44;;;8.78;100.00
15229;BME280;7717;47.792;12.076;2022-10-17T02:38:49;96827.59;;;8.64;100.00
15229;BME280;7717;47.792;12.076;2022-10-17T02:41:18;96831.69;;;8.55;100.00
15229;BME280;7717;47.792;12.076;2022-10-17T02:43:45;96837.75;;;8.60;100.00
15229;BME280;7717;47.792;12.076;2022-10-17T02:46:13;96835.09;;;8.52;100.00
15229;BME280;7717;47.792;12.076;2022-10-17T02:48:51;96826.50;;;8.45;100.00
15229;BME280;7717;47.792;12.076;2022-10-17T02:51:27;96829.88;;;8.44;100.00
15229;BME280;7717;47.792;12.076;2022-10-17T02:56:42;96834.78;;;8.34;100.00
15229;BME280;7717;47.792;12.076;2022-10-17T02:59:13;96824.41;;;8.21;100.00
15229;BME280;7717;47.792;12.076;2022-10-17T03:01:40;96839.25;;;8.45;100.00
15229;BME280;7717;47.792;12.076;2022-10-17T03:04:10;96839.31;;;8.50;100.00
15229;BME280;7717;47.792;12.076;2022-10-17T03:06:37;96840.28;;;8.58;100.00
15229;BME280;7717;47.792;12.076;2022-10-17T03:09:03;96837.84;;;8.68;100.00
15229;BME280;7717;47.792;12.076;2022-10-17T03:11:28;96834.41;;;8.65;100.00
15229;BME280;7717;47.792;12.076;2022-10-17T03:13:53;96835.28;;;8.66;100.00
15229;BME280;7717;47.792;12.076;2022-10-17T03:16:19;96841.25;;;8.68;100.00
15229;BME280;7717;47.792;12.076;2022-10-17T03:18:44;96842.13;;;8.70;100.00
15229;BME280;7717;47.792;12.076;2022-10-17T03:21:09;96843.63;;;8.56;100.00
15229;BME280;7717;47.792;12.076;2022-10-17T03:23:35;96841.16;;;8.60;100.00
15229;BME280;7717;47.792;12.076;2022-10-17T03:26:06;96845.41;;;8.60;100.00
15229;BME280;7717;47.792;12.076;2022-10-17T03:28:32;96846.16;;;8.54;100.00
15229;BME280;7717;47.792;12.076;2022-10-17T03:30:57;96843.63;;;8.54;100.00
15229;BME280;7717;47.792;12.076;2022-10-17T03:33:23;96839.31;;;8.50;100.00
15229;BME280;7717;47.792;12.076;2022-10-17T03:35:48;96840.09;;;8.44;100.00
15229;BME280;7717;47.792;12.076;2022-10-17T03:38:13;96841.69;;;8.39;100.00
15229;BME280;7717;47.792;12.076;2022-10-17T03:40:42;96836.44;;;8.28;100.00
15229;BME280;7717;47.792;12.076;2022-10-17T03:43:07;96839.63;;;8.17;100.00
15229;BME280;7717;47.792;12.076;2022-10-17T03:45:32;96830.16;;;8.08;100.00
15229;BME280;7717;47.792;12.076;2022-10-17T03:47:58;96825.03;;;8.06;100.00
15229;BME280;7717;47.792;12.076;2022-10-17T03:50:24;96849.75;;;8.10;100.00
15229;BME280;7717;47.792;12.076;2022-10-17T03:52:49;96841.25;;;8.10;100.00
15229;BME280;7717;47.792;12.076;2022-10-17T03:55:15;96844.56;;;8.06;100.00
15229;BME280;7717;47.792;12.076;2022-10-17T03:57:43;96835.78;;;7.88;100.00
15229;BME280;7717;47.792;12.076;2022-10-17T04:00:09;96841.81;;;7.93;100.00
15229;BME280;7717;47.792;12.076;2022-10-17T04:02:35;96839.22;;;7.90;100.00
15229;BME280;7717;47.792;12.076;2022-10-17T04:05:00;96836.63;;;7.87;100.00
15229;BME280;7717;47.792;12.076;2022-10-17T04:07:26;96848.00;;;8.08;100.00
15229;BME280;7717;47.792;12.076;2022-10-17T04:09:52;96849.22;;;8.32;100.00
15229;BME280;7717;47.792;12.076;2022-10-17T04:12:17;96845.09;;;8.40;100.00
15229;BME280;7717;47.792;12.076;2022-10-17T04:14:43;96850.28;;;8.44;100.00
15229;BME280;7717;47.792;12.076;2022-10-17T04:17:09;96847.75;;;8.46;100.00
15229;BME280;7717;47.792;12.076;2022-10-17T04:19:34;96851.75;;;8.30;100.00
15229;BME280;7717;47.792;12.076;2022-10-17T04:21:59;96849.28;;;8.35;100.00
15229;BME280;7717;47.792;12.076;2022-10-17T04:24:27;96854.41;;;8.38;100.00
15229;BME280;7717;47.792;12.076;2022-10-17T04:26:59;96860.22;;;8.29;100.00
15229;BME280;7717;47.792;12.076;2022-10-17T04:29:24;96861.06;;;8.29;100.00
15229;BME280;7717;47.792;12.076;2022-10-17T04:31:50;96861.06;;;8.29;100.00
15229;BME280;7717;47.792;12.076;2022-10-17T04:34:16;96858.38;;;8.20;100.00
15229;BME280;7717;47.792;12.076;2022-10-17T04:36:44;96852.34;;;8.14;100.00
15229;BME280;7717;47.792;12.076;2022-10-17T04:39:11;96853.13;;;8.09;100.00
15229;BME280;7717;47.792;12.076;2022-10-17T04:41:36;96857.22;;;8.00;100.00
15229;BME280;7717;47.792;12.076;2022-10-17T04:44:02;96859.72;;;7.98;100.00
15229;BME280;7717;47.792;12.076;2022-10-17T04:46:28;96853.78;;;7.98;100.00
15229;BME280;7717;47.792;12.076;2022-10-17T04:48:53;96849.56;;;8.00;100.00
15229;BME280;7717;47.792;12.076;2022-10-17T04:51:19;96846.00;;;7.90;100.00
15229;BME280;7717;47.792;12.076;2022-10-17T04:53:45;96840.00;;;7.85;100.00
15229;BME280;7717;47.792;12.076;2022-10-17T04:56:13;96852.94;;;7.97;100.00
15229;BME280;7717;47.792;12.076;2022-10-17T04:58:40;96860.94;;;8.20;100.00
15229;BME280;7717;47.792;12.076;2022-10-17T05:01:07;96859.19;;;8.74;100.00
15229;BME280;7717;47.792;12.076;2022-10-17T05:03:34;96850.94;;;8.94;100.00
15229;BME280;7717;47.792;12.076;2022-10-17T05:06:29;96851.09;;;9.06;100.00
15229;BME280;7717;47.792;12.076;2022-10-17T05:08:59;96855.66;;;9.32;100.00
15229;BME280;7717;47.792;12.076;2022-10-17T05:11:27;96848.25;;;9.55;100.00
15229;BME280;7717;47.792;12.076;2022-10-17T05:13:57;96844.03;;;9.62;100.00
15229;BME280;7717;47.792;12.076;2022-10-17T05:16:24;96851.72;;;9.63;100.00
15229;BME280;7717;47.792;12.076;2022-10-17T05:18:57;96860.25;;;9.67;100.00
15229;BME280;7717;47.792;12.076;2022-10-17T05:21:24;96871.28;;;9.58;100.00
15229;BME280;7717;47.792;12.076;2022-10-17T05:23:50;96861.28;;;9.86;100.00
15229;BME280;7717;47.792;12.076;2022-10-17T05:26:16;96856.53;;;10.31;100.00
15229;BME280;7717;47.792;12.076;2022-10-17T05:28:41;96867.19;;;10.89;100.00
15229;BME280;7717;47.792;12.076;2022-10-17T05:31:08;96867.25;;;11.09;100.00
15229;BME280;7717;47.792;12.076;2022-10-17T05:33:34;96865.66;;;11.27;100.00
15229;BME280;7717;47.792;12.076;2022-10-17T05:35:59;96863.94;;;11.32;100.00
15229;BME280;7717;47.792;12.076;2022-10-17T05:38:25;96858.00;;;11.44;100.00
15229;BME280;7717;47.792;12.076;2022-10-17T05:40:51;96870.78;;;11.38;100.00
15229;BME280;7717;47.792;12.076;2022-10-17T05:43:20;96874.75;;;10.68;100.00
15229;BME280;7717;47.792;12.076;2022-10-17T05:45:46;96870.44;;;10.62;100.00
15229;BME280;7717;47.792;12.076;2022-10-17T05:48:11;96878.19;;;10.73;100.00
15229;BME280;7717;47.792;12.076;2022-10-17T05:50:36;96881.59;;;10.72;100.00
15229;BME280;7717;47.792;12.076;2022-10-17T05:53:02;96863.47;;;10.36;100.00
15229;BME280;7717;47.792;12.076;2022-10-17T05:55:27;96894.53;;;9.87;100.00
15229;BME280;7717;47.792;12.076;2022-10-17T05:57:52;96896.47;;;9.27;100.00
15229;BME280;7717;47.792;12.076;2022-10-17T06:00:19;96901.19;;;8.96;100.00
15229;BME280;7717;47.792;12.076;2022-10-17T06:02:45;96916.41;;;8.90;100.00
15229;BME280;7717;47.792;12.076;2022-10-17T06:05:11;96916.38;;;8.87;100.00
15229;BME280;7717;47.792;12.076;2022-10-17T06:07:37;96919.75;;;8.83;100.00
15229;BME280;7717;47.792;12.076;2022-10-17T06:10:02;96922.38;;;8.88;100.00
15229;BME280;7717;47.792;12.076;2022-10-17T06:12:28;96928.22;;;8.82;100.00
15229;BME280;7717;47.792;12.076;2022-10-17T06:14:53;96926.63;;;8.90;100.00
15229;BME280;7717;47.792;12.076;2022-10-17T06:17:18;96925.88;;;8.96;100.00
15229;BME280;7717;47.792;12.076;2022-10-17T06:19:44;96930.22;;;9.05;100.00
15229;BME280;7717;47.792;12.076;2022-10-17T06:22:09;96925.25;;;9.14;100.00
15229;BME280;7717;47.792;12.076;2022-10-17T06:24:35;96934.78;;;9.26;100.00
15229;BME280;7717;47.792;12.076;2022-10-17T06:27:00;96934.84;;;9.32;100.00
15229;BME280;7717;47.792;12.076;2022-10-17T06:29:25;96929.78;;;9.35;100.00
15229;BME280;7717;47.792;12.076;2022-10-17T06:31:51;96938.44;;;9.48;100.00
15229;BME280;7717;47.792;12.076;2022-10-17T06:34:16;96948.00;;;9.64;100.00
15229;BME280;7717;47.792;12.076;2022-10-17T06:36:41;96931.16;;;9.82;100.00
15229;BME280;7717;47.792;12.076;2022-10-17T06:39:07;96946.53;;;9.86;100.00
15229;BME280;7717;47.792;12.076;2022-10-17T06:41:32;96950.91;;;9.98;100.00
15229;BME280;7717;47.792;12.076;2022-10-17T06:43:57;96956.09;;;10.06;100.00
15229;BME280;7717;47.792;12.076;2022-10-17T06:46:23;96957.91;;;10.16;100.00
15229;BME280;7717;47.792;12.076;2022-10-17T06:48:51;96961.56;;;10.40;100.00
15229;BME280;7717;47.792;12.076;2022-10-17T06:51:17;96967.66;;;10.56;100.00
15229;BME280;7717;47.792;12.076;2022-10-17T06:53:42;96976.31;;;10.70;100.00
15229;BME280;7717;47.792;12.076;2022-10-17T06:56:08;96975.56;;;10.85;100.00
15229;BME280;7717;47.792;12.076;2022-10-17T06:58:36;96974.75;;;10.94;100.00
15229;BME280;7717;47.792;12.076;2022-10-17T07:01:11;96979.94;;;11.00;100.00
15229;BME280;7717;47.792;12.076;2022-10-17T07:03:37;96990.22;;;11.06;100.00
15229;BME280;7717;47.792;12.076;2022-10-17T07:06:03;96980.00;;;11.12;100.00
15229;BME280;7717;47.792;12.076;2022-10-17T07:08:28;96986.88;;;11.18;100.00
15229;BME280;7717;47.792;12.076;2022-10-17T07:10:54;96987.78;;;11.25;100.00
15229;BME280;7717;47.792;12.076;2022-10-17T07:13:20;96993.75;;;11.21;100.00
15229;BME280;7717;47.792;12.076;2022-10-17T07:15:45;96993.81;;;11.33;100.00
15229;BME280;7717;47.792;12.076;2022-10-17T07:18:11;96994.72;;;11.43;100.00
15229;BME280;7717;47.792;12.076;2022-10-17T07:20:37;96999.03;;;11.53;100.00
15229;BME280;7717;47.792;12.076;2022-10-17T07:23:03;96990.53;;;11.60;100.00
15229;BME280;7717;47.792;12.076;2022-10-17T07:25:28;96993.97;;;11.68;100.00
15229;BME280;7717;47.792;12.076;2022-10-17T07:27:54;96999.13;;;11.78;100.00
15229;BME280;7717;47.792;12.076;2022-10-17T07:30:20;96994.84;;;11.81;100.00
15229;BME280;7717;47.792;12.076;2022-10-17T07:32:46;97006.06;;;11.93;100.00
15229;BME280;7717;47.792;12.076;2022-10-17T07:35:12;97012.09;;;12.07;100.00
15229;BME280;7717;47.792;12.076;2022-10-17T07:37:38;97000.16;;;12.20;100.00
15229;BME280;7717;47.792;12.076;2022-10-17T07:40:05;97014.72;;;12.36;100.00
15229;BME280;7717;47.792;12.076;2022-10-17T07:42:31;97007.88;;;12.43;100.00
15229;BME280;7717;47.792;12.076;2022-10-17T07:44:57;97003.63;;;12.53;100.00
15229;BME280;7717;47.792;12.076;2022-10-17T07:47:23;97011.34;;;12.74;100.00
15229;BME280;7717;47.792;12.076;2022-10-17T07:49:48;96999.34;;;12.96;100.00
15229;BME280;7717;47.792;12.076;2022-10-17T07:52:15;97008.75;;;13.08;100.00
15229;BME280;7717;47.792;12.076;2022-10-17T07:54:40;97017.31;;;13.13;100.00
15229;BME280;7717;47.792;12.076;2022-10-17T07:57:07;96963.34;;;13.03;100.00
15229;BME280;7717;47.792;12.076;2022-10-17T07:59:33;97013.84;;;13.47;100.00
15229;BME280;7717;47.792;12.076;2022-10-17T08:02:00;97014.69;;;13.60;100.00
15229;BME280;7717;47.792;12.076;2022-10-17T08:04:26;97017.22;;;13.72;100.00
15229;BME280;7717;47.792;12.076;2022-10-17T08:06:52;97013.72;;;13.79;100.00
15229;BME280;7717;47.792;12.076;2022-10-17T08:09:18;97008.56;;;13.85;100.00
15229;BME280;7717;47.792;12.076;2022-10-17T08:11:43;97006.66;;;14.20;100.00
15229;BME280;7717;47.792;12.076;2022-10-17T08:14:10;97005.72;;;14.36;100.00
15229;BME280;7717;47.792;12.076;2022-10-17T08:16:36;96997.88;;;14.56;100.00
15229;BME280;7717;47.792;12.076;2022-10-17T08:19:02;97002.13;;;14.59;100.00
15229;BME280;7717;47.792;12.076;2022-10-17T08:21:28;97006.31;;;14.79;100.00
15229;BME280;7717;47.792;12.076;2022-10-17T08:23:54;96998.38;;;15.00;100.00
15229;BME280;7717;47.792;12.076;2022-10-17T08:26:19;97001.63;;;15.24;100.00
15229;BME280;7717;47.792;12.076;2022-10-17T08:28:45;97001.25;;;15.58;100.00
15229;BME280;7717;47.792;12.076;2022-10-17T08:31:13;96983.66;;;15.92;100.00
15229;BME280;7717;47.792;12.076;2022-10-17T08:33:40;97002.34;;;16.13;100.00
15229;BME280;7717;47.792;12.076;2022-10-17T08:36:07;96989.75;;;16.50;100.00
15229;BME280;7717;47.792;12.076;2022-10-17T08:38:34;96986.69;;;16.80;100.00
15229;BME280;7717;47.792;12.076;2022-10-17T08:41:03;96987.16;;;17.03;100.00
15229;BME280;7717;47.792;12.076;2022-10-17T08:43:48;96974.44;;;17.41;100.00
15229;BME280;7717;47.792;12.076;2022-10-17T08:46:16;96983.84;;;18.29;100.00
15229;BME280;7717;47.792;12.076;2022-10-17T08:48:45;96929.06;;;21.87;100.00
15229;BME280;7717;47.792;12.076;2022-10-17T08:51:22;96934.44;;;23.55;99.88
15229;BME280;7717;47.792;12.076;2022-10-17T08:54:21;96912.31;;;24.75;93.14
15229;BME280;7717;47.792;12.076;2022-10-17T08:56:50;96972.81;;;26.23;96.65
15229;BME280;7717;47.792;12.076;2022-10-17T08:59:20;96964.75;;;25.61;91.05
15229;BME280;7717;47.792;12.076;2022-10-17T09:01:54;96927.59;;;26.02;83.72
15229;BME280;7717;47.792;12.076;2022-10-17T09:07:26;96842.53;;;27.42;76.82
15229;BME280;7717;47.792;12.076;2022-10-17T09:12:57;96883.88;;;27.24;76.83
15229;BME280;7717;47.792;12.076;2022-10-17T09:18:40;96984.63;;;28.68;81.57
15229;BME280;7717;47.792;12.076;2022-10-17T09:21:19;96858.09;;;29.08;71.48
15229;BME280;7717;47.792;12.076;2022-10-17T09:23:55;96739.16;;;30.58;62.30
15229;BME280;7717;47.792;12.076;2022-10-17T09:26:22;96872.34;;;32.27;68.34
15229;BME280;7717;47.792;12.076;2022-10-17T09:28:53;96837.66;;;31.30;64.48
15229;BME280;7717;47.792;12.076;2022-10-17T09:31:25;96782.28;;;31.94;61.40
15229;BME280;7717;47.792;12.076;2022-10-17T09:34:00;96796.19;;;32.61;61.70
15229;BME280;7717;47.792;12.076;2022-10-17T09:36:29;96868.72;;;31.73;64.94
15229;BME280;7717;47.792;12.076;2022-10-17T09:39:03;96774.81;;;33.26;59.61
15229;BME280;7717;47.792;12.076;2022-10-17T09:41:35;96885.97;;;31.20;64.75
15229;BME280;7717;47.792;12.076;2022-10-17T09:46:54;96909.19;;;30.33;66.76
15229;BME280;7717;47.792;12.076;2022-10-17T09:49:33;96860.94;;;32.04;63.72
15229;BME280;7717;47.792;12.076;2022-10-17T09:52:04;96826.41;;;32.91;60.70
15229;BME280;7717;47.792;12.076;2022-10-17T09:57:09;96914.03;;;31.34;65.01
15229;BME280;7717;47.792;12.076;2022-10-17T10:02:17;96910.31;;;31.93;64.79
15229;BME280;7717;47.792;12.076;2022-10-17T10:07:19;97039.19;;;30.86;73.71
15229;BME280;7717;47.792;12.076;2022-10-17T10:09:46;96964.66;;;32.65;69.75
15229;BME280;7717;47.792;12.076;2022-10-17T10:12:23;96752.81;;;33.45;55.62
15229;BME280;7717;47.792;12.076;2022-10-17T10:14:49;96925.63;;;33.10;65.63
15229;BME280;7717;47.792;12.076;2022-10-17T10:17:39;96782.25;;;32.38;56.58
15229;BME280;7717;47.792;12.076;2022-10-17T10:20:27;96806.47;;;31.79;57.41
15229;BME280;7717;47.792;12.076;2022-10-17T10:23:10;96755.56;;;33.03;55.23
15229;BME280;7717;47.792;12.076;2022-10-17T10:25:37;96996.13;;;32.02;69.89
15229;BME280;7717;47.792;12.076;2022-10-17T10:28:10;96825.94;;;32.00;58.27
15229;BME280;7717;47.792;12.076;2022-10-17T10:30:36;96853.09;;;33.42;60.02
15229;BME280;7717;47.792;12.076;2022-10-17T10:33:01;96839.50;;;34.26;59.72
15229;BME280;7717;47.792;12.076;2022-10-17T10:35:32;96797.53;;;34.39;56.17
15229;BME280;7717;47.792;12.076;2022-10-17T10:38:06;96897.88;;;32.28;60.93
15229;BME280;7717;47.792;12.076;2022-10-17T10:40:37;96979.16;;;31.24;66.78
15229;BME280;7717;47.792;12.076;2022-10-17T10:43:31;96767.91;;;33.64;54.27
15229;BME280;7717;47.792;12.076;2022-10-17T10:45:58;96879.91;;;33.39;60.33
15229;BME280;7717;47.792;12.076;2022-10-17T10:48:25;96959.91;;;32.03;65.17
15229;BME280;7717;47.792;12.076;2022-10-17T10:50:58;96925.81;;;32.76;63.57
15229;BME280;7717;47.792;12.076;2022-10-17T10:53:49;96794.97;;;31.00;54.92
15229;BME280;7717;47.792;12.076;2022-10-17T10:56:21;96887.97;;;33.16;60.72
15229;BME280;7717;47.792;12.076;2022-10-17T11:06:46;96802.66;;;34.02;55.60
15229;BME280;7717;47.792;12.076;2022-10-17T11:11:42;96713.81;;;36.02;51.00
15229;BME280;7717;47.792;12.076;2022-10-17T11:16:59;96746.00;;;34.60;51.33
15229;BME280;7717;47.792;12.076;2022-10-17T11:19:36;96712.34;;;33.72;50.13
15229;BME280;7717;47.792;12.076;2022-10-17T11:22:30;96705.91;;;34.24;48.98
15229;BME280;7717;47.792;12.076;2022-10-17T11:25:18;96675.03;;;34.70;48.60
15229;BME280;7717;47.792;12.076;2022-10-17T11:27:46;96810.53;;;34.52;55.90
15229;BME280;7717;47.792;12.076;2022-10-17T11:30:13;96791.59;;;35.32;53.38
15229;BME280;7717;47.792;12.076;2022-10-17T11:32:49;96728.72;;;35.77;50.95
15229;BME280;7717;47.792;12.076;2022-10-17T11:35:26;96706.88;;;36.09;49.52
15229;BME280;7717;47.792;12.076;2022-10-17T11:40:39;96698.53;;;35.12;49.18
15229;BME280;7717;47.792;12.076;2022-10-17T11:43:16;96716.09;;;36.33;48.86
15229;BME280;7717;47.792;12.076;2022-10-17T11:45:51;96759.59;;;35.69;51.87
15229;BME280;7717;47.792;12.076;2022-10-17T11:48:25;96778.91;;;35.16;52.04
15229;BME280;7717;47.792;12.076;2022-10-17T11:51:00;96698.75;;;34.91;47.88
15229;BME280;7717;47.792;12.076;2022-10-17T11:53:39;96766.88;;;35.49;51.84
15229;BME280;7717;47.792;12.076;2022-10-17T11:56:09;96793.00;;;35.64;54.00
15229;BME280;7717;47.792;12.076;2022-10-17T11:58:54;96676.91;;;36.78;47.25
15229;BME280;7717;47.792;12.076;2022-10-17T12:01:35;96687.09;;;35.76;47.56
15229;BME280;7717;47.792;12.076;2022-10-17T12:11:54;96819.78;;;33.07;53.91
15229;BME280;7717;47.792;12.076;2022-10-17T12:14:43;96678.00;;;35.50;46.47
15229;BME280;7717;47.792;12.076;2022-10-17T12:17:32;96705.59;;;33.49;47.14
15229;BME280;7717;47.792;12.076;2022-10-17T12:23:33;96729.34;;;36.51;49.59
15229;BME280;7717;47.792;12.076;2022-10-17T12:25:54;96709.53;;;34.42;47.46
15229;BME280;7717;47.792;12.076;2022-10-17T12:28:30;96727.00;;;35.02;48.89
15229;BME280;7717;47.792;12.076;2022-10-17T12:30:59;96785.75;;;35.74;53.17
15229;BME280;7717;47.792;12.076;2022-10-17T12:33:47;96806.31;;;34.11;53.60
15229;BME280;7717;47.792;12.076;2022-10-17T12:46:48;96721.91;;;35.64;48.97
15229;BME280;7717;47.792;12.076;2022-10-17T12:49:18;96733.03;;;34.94;49.89
15229;BME280;7717;47.792;12.076;2022-10-17T12:54:40;96682.38;;;36.06;46.14
15229;BME280;7717;47.792;12.076;2022-10-17T12:59:51;96685.38;;;35.39;47.05
15229;BME280;7717;47.792;12.076;2022-10-17T13:02:20;96754.63;;;35.29;50.47
15229;BME280;7717;47.792;12.076;2022-10-17T13:04:49;96722.13;;;35.81;48.89
15229;BME280;7717;47.792;12.076;2022-10-17T13:07:20;96739.94;;;36.61;50.03
15229;BME280;7717;47.792;12.076;2022-10-17T13:09:46;96757.41;;;35.65;51.38
15229;BME280;7717;47.792;12.076;2022-10-17T13:12:24;96701.47;;;34.82;46.76
15229;BME280;7717;47.792;12.076;2022-10-17T13:14:52;96796.41;;;35.19;53.81
15229;BME280;7717;47.792;12.076;2022-10-17T13:17:27;96676.81;;;35.99;46.02
15229;BME280;7717;47.792;12.076;2022-10-17T13:19:55;96722.06;;;34.79;49.53
15229;BME280;7717;47.792;12.076;2022-10-17T13:22:28;96689.22;;;34.99;46.44
15229;BME280;7717;47.792;12.076;2022-10-17T13:25:15;96649.75;;;34.94;44.92
15229;BME280;7717;47.792;12.076;2022-10-17T13:27:41;96767.13;;;35.56;52.15
15229;BME280;7717;47.792;12.076;2022-10-17T13:30:28;96714.47;;;33.98;48.48
15229;BME280;7717;47.792;12.076;2022-10-17T13:32:54;96765.56;;;34.88;51.52
15229;BME280;7717;47.792;12.076;2022-10-17T13:35:30;96643.31;;;35.42;45.51
15229;BME280;7717;47.792;12.076;2022-10-17T13:37:56;96690.38;;;36.06;47.71
15229;BME280;7717;47.792;12.076;2022-10-17T13:40:28;96703.00;;;34.07;47.20
15229;BME280;7717;47.792;12.076;2022-10-17T13:42:57;96728.94;;;35.65;49.63
15229;BME280;7717;47.792;12.076;2022-10-17T13:47:57;96748.06;;;34.86;50.89
15229;BME280;7717;47.792;12.076;2022-10-17T13:50:33;96664.50;;;35.62;45.43
15229;BME280;7717;47.792;12.076;2022-10-17T13:53:11;96713.91;;;35.92;48.16
15229;BME280;7717;47.792;12.076;2022-10-17T13:55:52;96749.09;;;34.16;49.94
15229;BME280;7717;47.792;12.076;2022-10-17T13:58:18;96835.88;;;32.84;54.67
15229;BME280;7717;47.792;12.076;2022-10-17T14:00:44;96798.88;;;33.75;53.63
15229;BME280;7717;47.792;12.076;2022-10-17T14:03:10;96816.63;;;33.75;53.87
15229;BME280;7717;47.792;12.076;2022-10-17T14:06:03;96722.97;;;32.39;47.40
15229;BME280;7717;47.792;12.076;2022-10-17T14:08:31;96836.63;;;32.21;54.53
15229;BME280;7717;47.792;12.076;2022-10-17T14:10:57;96815.69;;;32.18;53.73
15229;BME280;7717;47.792;12.076;2022-10-17T14:13:28;96812.03;;;31.75;52.44
15229;BME280;7717;47.792;12.076;2022-10-17T14:15:59;96808.44;;;32.41;52.15
15229;BME280;7717;47.792;12.076;2022-10-17T14:18:27;96786.00;;;33.30;51.89
15229;BME280;7717;47.792;12.076;2022-10-17T14:20:53;96767.38;;;33.20;51.75
15229;BME280;7717;47.792;12.076;2022-10-17T14:26:05;96763.41;;;33.14;49.18
15229;BME280;7717;47.792;12.076;2022-10-17T14:28:31;96834.16;;;32.83;54.06
15229;BME280;7717;47.792;12.076;2022-10-17T14:33:48;96855.09;;;31.32;55.26
15229;BME280;7717;47.792;12.076;2022-10-17T14:36:14;96895.88;;;30.94;57.72
15229;BME280;7717;47.792;12.076;2022-10-17T14:38:44;96852.59;;;31.53;54.60
15229;BME280;7717;47.792;12.076;2022-10-17T14:41:23;96842.56;;;32.35;54.00
15229;BME280;7717;47.792;12.076;2022-10-17T14:44:18;96803.56;;;32.37;52.35
15229;BME280;7717;47.792;12.076;2022-10-17T14:46:45;96873.88;;;32.41;56.30